sensor_id;sensor_type;location;lat;lon;timestamp;pressure;altitude;pressure_sealevel;temperature
19282;BMP180;9774;52.034;5.342;2023-05-02T00:02:08;101850.00;;;17.40
19282;BMP180;9774;52.034;5.342;2023-05-02T00:04:35;101852.00;;;17.40
19282;BMP180;9774;52.034;5.342;2023-05-02T00:07:03;101851.00;;;17.40
19282;BMP180;9774;52.034;5.342;2023-05-02T00:09:31;101842.00;;;17.40
19282;BMP180;9774;52.034;5.342;2023-05-02T00:11:59;101840.00;;;17.40
19282;BMP180;9774;52.034;5.342;2023-05-02T00:14:27;101837.00;;;17.40
19282;BMP180;9774;52.034;5.342;2023-05-02T00:16:54;101846.00;;;17.40
19282;BMP180;9774;52.034;5.342;2023-05-02T00:19:22;101848.00;;;17.40
19282;BMP180;9774;52.034;5.342;2023-05-02T00:21:49;101847.00;;;17.40
19282;BMP180;9774;52.034;5.342;2023-05-02T00:24:17;101843.00;;;17.40
19282;BMP180;9774;52.034;5.342;2023-05-02T00:26:45;101850.00;;;17.40
19282;BMP180;9774;52.034;5.342;2023-05-02T00:29:13;101849.00;;;17.40
19282;BMP180;9774;52.034;5.342;2023-05-02T00:31:40;101854.00;;;17.40
19282;BMP180;9774;52.034;5.342;2023-05-02T00:34:08;101850.00;;;17.40
19282;BMP180;9774;52.034;5.342;2023-05-02T00:36:35;101851.00;;;17.40
19282;BMP180;9774;52.034;5.342;2023-05-02T00:39:02;101852.00;;;17.50
19282;BMP180;9774;52.034;5.342;2023-05-02T00:41:30;101848.00;;;17.40
19282;BMP180;9774;52.034;5.342;2023-05-02T00:43:59;101856.00;;;17.50
19282;BMP180;9774;52.034;5.342;2023-05-02T00:46:26;101847.00;;;17.50
19282;BMP180;9774;52.034;5.342;2023-05-02T00:48:53;101850.00;;;17.50
19282;BMP180;9774;52.034;5.342;2023-05-02T00:51:21;101852.00;;;17.50
19282;BMP180;9774;52.034;5.342;2023-05-02T00:53:48;101852.00;;;17.50
19282;BMP180;9774;52.034;5.342;2023-05-02T00:56:17;101849.00;;;17.50
19282;BMP180;9774;52.034;5.342;2023-05-02T00:58:45;101860.00;;;17.50
19282;BMP180;9774;52.034;5.342;2023-05-02T01:01:28;101863.00;;;17.40
19282;BMP180;9774;52.034;5.342;2023-05-02T01:04:03;101869.00;;;17.50
19282;BMP180;9774;52.034;5.342;2023-05-02T01:06:44;101875.00;;;17.40
19282;BMP180;9774;52.034;5.342;2023-05-02T01:09:25;101874.00;;;17.40
19282;BMP180;9774;52.034;5.342;2023-05-02T01:12:00;101870.00;;;17.40
19282;BMP180;9774;52.034;5.342;2023-05-02T01:14:32;101864.00;;;17.50
19282;BMP180;9774;52.034;5.342;2023-05-02T01:17:03;101869.00;;;17.40
19282;BMP180;9774;52.034;5.342;2023-05-02T01:19:37;101871.00;;;17.40
19282;BMP180;9774;52.034;5.342;2023-05-02T01:22:07;101863.00;;;17.40
19282;BMP180;9774;52.034;5.342;2023-05-02T01:24:40;101877.00;;;17.40
19282;BMP180;9774;52.034;5.342;2023-05-02T01:27:14;101883.00;;;17.40
19282;BMP180;9774;52.034;5.342;2023-05-02T01:29:48;101878.00;;;17.40
19282;BMP180;9774;52.034;5.342;2023-05-02T01:32:16;101875.00;;;17.50
19282;BMP180;9774;52.034;5.342;2023-05-02T01:34:46;101881.00;;;17.50
19282;BMP180;9774;52.034;5.342;2023-05-02T01:37:15;101886.00;;;17.50
19282;BMP180;9774;52.034;5.342;2023-05-02T01:39:44;101891.00;;;17.50
19282;BMP180;9774;52.034;5.342;2023-05-02T01:42:13;101895.00;;;17.40
19282;BMP180;9774;52.034;5.342;2023-05-02T01:44:42;101899.00;;;17.40
19282;BMP180;9774;52.034;5.342;2023-05-02T01:47:11;101904.00;;;17.30
19282;BMP180;9774;52.034;5.342;2023-05-02T01:49:40;101913.00;;;17.40
19282;BMP180;9774;52.034;5.342;2023-05-02T01:52:11;101916.00;;;17.30
19282;BMP180;9774;52.034;5.342;2023-05-02T01:54:39;101929.00;;;17.30
19282;BMP180;9774;52.034;5.342;2023-05-02T01:57:08;101930.00;;;17.30
19282;BMP180;9774;52.034;5.342;2023-05-02T01:59:36;101923.00;;;17.20
19282;BMP180;9774;52.034;5.342;2023-05-02T02:02:06;101927.00;;;17.20
19282;BMP180;9774;52.034;5.342;2023-05-02T02:04:37;101928.00;;;17.20
19282;BMP180;9774;52.034;5.342;2023-05-02T02:07:07;101924.00;;;17.20
19282;BMP180;9774;52.034;5.342;2023-05-02T02:09:35;101927.00;;;17.20
19282;BMP180;9774;52.034;5.342;2023-05-02T02:12:05;101931.00;;;17.10
19282;BMP180;9774;52.034;5.342;2023-05-02T02:14:37;101925.00;;;17.10
19282;BMP180;9774;52.034;5.342;2023-05-02T02:17:10;101929.00;;;17.10
19282;BMP180;9774;52.034;5.342;2023-05-02T02:19:40;101929.00;;;17.10
19282;BMP180;9774;52.034;5.342;2023-05-02T02:22:08;101936.00;;;17.10
19282;BMP180;9774;52.034;5.342;2023-05-02T02:24:37;101942.00;;;17.10
19282;BMP180;9774;52.034;5.342;2023-05-02T02:27:05;101945.00;;;17.10
19282;BMP180;9774;52.034;5.342;2023-05-02T02:29:32;101950.00;;;17.10
19282;BMP180;9774;52.034;5.342;2023-05-02T02:31:59;101956.00;;;17.10
19282;BMP180;9774;52.034;5.342;2023-05-02T02:34:27;101956.00;;;17.00
19282;BMP180;9774;52.034;5.342;2023-05-02T02:36:59;101967.00;;;17.00
19282;BMP180;9774;52.034;5.342;2023-05-02T02:39:39;101965.00;;;16.90
19282;BMP180;9774;52.034;5.342;2023-05-02T02:42:12;101962.00;;;16.90
19282;BMP180;9774;52.034;5.342;2023-05-02T02:44:46;101970.00;;;16.80
19282;BMP180;9774;52.034;5.342;2023-05-02T02:47:22;101972.00;;;16.80
19282;BMP180;9774;52.034;5.342;2023-05-02T02:50:03;101971.00;;;16.70
19282;BMP180;9774;52.034;5.342;2023-05-02T02:52:45;101976.00;;;16.70
19282;BMP180;9774;52.034;5.342;2023-05-02T02:55:23;101979.00;;;16.60
19282;BMP180;9774;52.034;5.342;2023-05-02T02:57:56;101972.00;;;16.60
19282;BMP180;9774;52.034;5.342;2023-05-02T03:00:26;101978.00;;;16.70
19282;BMP180;9774;52.034;5.342;2023-05-02T03:02:55;101985.00;;;16.70
19282;BMP180;9774;52.034;5.342;2023-05-02T03:05:22;101985.00;;;16.60
19282;BMP180;9774;52.034;5.342;2023-05-02T03:07:51;101986.00;;;16.60
19282;BMP180;9774;52.034;5.342;2023-05-02T03:10:20;101991.00;;;16.60
19282;BMP180;9774;52.034;5.342;2023-05-02T03:12:48;101990.00;;;16.60
19282;BMP180;9774;52.034;5.342;2023-05-02T03:15:27;101991.00;;;16.50
19282;BMP180;9774;52.034;5.342;2023-05-02T03:17:59;101992.00;;;16.50
19282;BMP180;9774;52.034;5.342;2023-05-02T03:20:26;102001.00;;;16.50
19282;BMP180;9774;52.034;5.342;2023-05-02T03:22:55;102006.00;;;16.50
19282;BMP180;9774;52.034;5.342;2023-05-02T03:25:22;102006.00;;;16.50
19282;BMP180;9774;52.034;5.342;2023-05-02T03:27:49;102013.00;;;16.50
19282;BMP180;9774;52.034;5.342;2023-05-02T03:30:17;102013.00;;;16.50
19282;BMP180;9774;52.034;5.342;2023-05-02T03:32:44;102012.00;;;16.50
19282;BMP180;9774;52.034;5.342;2023-05-02T03:35:12;102013.00;;;16.40
19282;BMP180;9774;52.034;5.342;2023-05-02T03:37:39;102019.00;;;16.40
19282;BMP180;9774;52.034;5.342;2023-05-02T03:40:08;102028.00;;;16.40
19282;BMP180;9774;52.034;5.342;2023-05-02T03:42:36;102019.00;;;16.40
19282;BMP180;9774;52.034;5.342;2023-05-02T03:45:07;102033.00;;;16.40
19282;BMP180;9774;52.034;5.342;2023-05-02T03:47:35;102033.00;;;16.40
19282;BMP180;9774;52.034;5.342;2023-05-02T03:50:03;102033.00;;;16.30
19282;BMP180;9774;52.034;5.342;2023-05-02T03:52:30;102024.00;;;16.30
19282;BMP180;9774;52.034;5.342;2023-05-02T03:54:57;102034.00;;;16.30
19282;BMP180;9774;52.034;5.342;2023-05-02T03:57:29;102029.00;;;16.20
19282;BMP180;9774;52.034;5.342;2023-05-02T03:59:56;102038.00;;;16.20
19282;BMP180;9774;52.034;5.342;2023-05-02T04:02:23;102040.00;;;16.30
19282;BMP180;9774;52.034;5.342;2023-05-02T04:04:51;102041.00;;;16.20
19282;BMP180;9774;52.034;5.342;2023-05-02T04:07:18;102042.00;;;16.20
19282;BMP180;9774;52.034;5.342;2023-05-02T04:09:46;102046.00;;;16.20
19282;BMP180;9774;52.034;5.342;2023-05-02T04:12:14;102053.00;;;16.20
19282;BMP180;9774;52.034;5.342;2023-05-02T04:14:43;102050.00;;;16.20
19282;BMP180;9774;52.034;5.342;2023-05-02T04:17:10;102054.00;;;16.20
19282;BMP180;9774;52.034;5.342;2023-05-02T04:19:38;102058.00;;;16.20
19282;BMP180;9774;52.034;5.342;2023-05-02T04:22:05;102055.00;;;16.10
19282;BMP180;9774;52.034;5.342;2023-05-02T04:24:33;102065.00;;;16.10
19282;BMP180;9774;52.034;5.342;2023-05-02T04:27:00;102071.00;;;16.10
19282;BMP180;9774;52.034;5.342;2023-05-02T04:29:28;102071.00;;;16.10
19282;BMP180;9774;52.034;5.342;2023-05-02T04:31:56;102068.00;;;16.00
19282;BMP180;9774;52.034;5.342;2023-05-02T04:34:24;102070.00;;;16.00
19282;BMP180;9774;52.034;5.342;2023-05-02T04:36:52;102078.00;;;16.00
19282;BMP180;9774;52.034;5.342;2023-05-02T04:39:19;102089.00;;;16.00
19282;BMP180;9774;52.034;5.342;2023-05-02T04:41:47;102092.00;;;16.00
19282;BMP180;9774;52.034;5.342;2023-05-02T04:44:15;102094.00;;;16.00
19282;BMP180;9774;52.034;5.342;2023-05-02T04:46:42;102098.00;;;15.90
19282;BMP180;9774;52.034;5.342;2023-05-02T04:49:11;102098.00;;;15.90
19282;BMP180;9774;52.034;5.342;2023-05-02T04:51:38;102106.00;;;16.00
19282;BMP180;9774;52.034;5.342;2023-05-02T04:54:06;102104.00;;;15.90
19282;BMP180;9774;52.034;5.342;2023-05-02T04:56:33;102112.00;;;15.90
19282;BMP180;9774;52.034;5.342;2023-05-02T04:59:00;102125.00;;;15.90
19282;BMP180;9774;52.034;5.342;2023-05-02T05:01:27;102133.00;;;15.90
19282;BMP180;9774;52.034;5.342;2023-05-02T05:03:55;102133.00;;;15.90
19282;BMP180;9774;52.034;5.342;2023-05-02T05:06:24;102134.00;;;15.90
19282;BMP180;9774;52.034;5.342;2023-05-02T05:08:51;102147.00;;;15.90
19282;BMP180;9774;52.034;5.342;2023-05-02T05:11:18;102147.00;;;16.00
19282;BMP180;9774;52.034;5.342;2023-05-02T05:13:46;102144.00;;;16.00
19282;BMP180;9774;52.034;5.342;2023-05-02T05:16:13;102143.00;;;16.00
19282;BMP180;9774;52.034;5.342;2023-05-02T05:18:40;102146.00;;;16.00
19282;BMP180;9774;52.034;5.342;2023-05-02T05:21:08;102145.00;;;16.00
19282;BMP180;9774;52.034;5.342;2023-05-02T05:23:37;102149.00;;;16.00
19282;BMP180;9774;52.034;5.342;2023-05-02T05:26:12;102155.00;;;16.00
19282;BMP180;9774;52.034;5.342;2023-05-02T05:28:40;102159.00;;;16.10
19282;BMP180;9774;52.034;5.342;2023-05-02T05:31:09;102161.00;;;16.00
19282;BMP180;9774;52.034;5.342;2023-05-02T05:33:37;102164.00;;;16.10
19282;BMP180;9774;52.034;5.342;2023-05-02T05:36:06;102163.00;;;16.10
19282;BMP180;9774;52.034;5.342;2023-05-02T05:38:34;102170.00;;;16.10
19282;BMP180;9774;52.034;5.342;2023-05-02T05:41:03;102181.00;;;16.10
19282;BMP180;9774;52.034;5.342;2023-05-02T05:43:31;102182.00;;;16.10
19282;BMP180;9774;52.034;5.342;2023-05-02T05:46:01;102184.00;;;16.10
19282;BMP180;9774;52.034;5.342;2023-05-02T05:48:29;102188.00;;;16.10
19282;BMP180;9774;52.034;5.342;2023-05-02T05:50:56;102198.00;;;16.10
19282;BMP180;9774;52.034;5.342;2023-05-02T05:53:23;102201.00;;;16.10
19282;BMP180;9774;52.034;5.342;2023-05-02T05:55:51;102205.00;;;16.20
19282;BMP180;9774;52.034;5.342;2023-05-02T05:58:22;102207.00;;;16.10
19282;BMP180;9774;52.034;5.342;2023-05-02T06:00:50;102216.00;;;16.20
19282;BMP180;9774;52.034;5.342;2023-05-02T06:03:18;102213.00;;;16.20
19282;BMP180;9774;52.034;5.342;2023-05-02T06:05:45;102218.00;;;16.20
19282;BMP180;9774;52.034;5.342;2023-05-02T06:08:12;102229.00;;;16.20
19282;BMP180;9774;52.034;5.342;2023-05-02T06:10:40;102229.00;;;16.20
19282;BMP180;9774;52.034;5.342;2023-05-02T06:13:07;102237.00;;;16.20
19282;BMP180;9774;52.034;5.342;2023-05-02T06:15:36;102243.00;;;16.20
19282;BMP180;9774;52.034;5.342;2023-05-02T06:18:04;102243.00;;;16.20
19282;BMP180;9774;52.034;5.342;2023-05-02T06:20:32;102251.00;;;16.30
19282;BMP180;9774;52.034;5.342;2023-05-02T06:23:01;102259.00;;;16.30
19282;BMP180;9774;52.034;5.342;2023-05-02T06:25:29;102256.00;;;16.30
19282;BMP180;9774;52.034;5.342;2023-05-02T06:27:59;102252.00;;;16.30
19282;BMP180;9774;52.034;5.342;2023-05-02T06:30:26;102256.00;;;16.40
19282;BMP180;9774;52.034;5.342;2023-05-02T06:32:55;102262.00;;;16.40
19282;BMP180;9774;52.034;5.342;2023-05-02T06:35:23;102270.00;;;16.40
19282;BMP180;9774;52.034;5.342;2023-05-02T06:37:50;102273.00;;;16.40
19282;BMP180;9774;52.034;5.342;2023-05-02T06:40:18;102275.00;;;16.40
19282;BMP180;9774;52.034;5.342;2023-05-02T06:42:45;102277.00;;;16.50
19282;BMP180;9774;52.034;5.342;2023-05-02T06:45:13;102279.00;;;16.50
19282;BMP180;9774;52.034;5.342;2023-05-02T06:47:40;102282.00;;;16.50
19282;BMP180;9774;52.034;5.342;2023-05-02T06:50:10;102296.00;;;16.60
19282;BMP180;9774;52.034;5.342;2023-05-02T06:52:37;102296.00;;;16.60
19282;BMP180;9774;52.034;5.342;2023-05-02T06:55:06;102296.00;;;16.70
19282;BMP180;9774;52.034;5.342;2023-05-02T06:57:34;102303.00;;;16.80
19282;BMP180;9774;52.034;5.342;2023-05-02T07:00:01;102304.00;;;16.80
19282;BMP180;9774;52.034;5.342;2023-05-02T07:02:29;102308.00;;;16.90
19282;BMP180;9774;52.034;5.342;2023-05-02T07:04:58;102313.00;;;16.90
19282;BMP180;9774;52.034;5.342;2023-05-02T07:07:26;102315.00;;;16.90
19282;BMP180;9774;52.034;5.342;2023-05-02T07:09:54;102316.00;;;16.90
19282;BMP180;9774;52.034;5.342;2023-05-02T07:12:21;102322.00;;;16.90
19282;BMP180;9774;52.034;5.342;2023-05-02T07:14:48;102316.00;;;16.90
19282;BMP180;9774;52.034;5.342;2023-05-02T07:17:16;102325.00;;;16.90
19282;BMP180;9774;52.034;5.342;2023-05-02T07:19:43;102332.00;;;16.90
19282;BMP180;9774;52.034;5.342;2023-05-02T07:22:11;102329.00;;;16.90
19282;BMP180;9774;52.034;5.342;2023-05-02T07:24:41;102334.00;;;16.90
19282;BMP180;9774;52.034;5.342;2023-05-02T07:27:09;102338.00;;;17.00
19282;BMP180;9774;52.034;5.342;2023-05-02T07:29:37;102338.00;;;17.00
19282;BMP180;9774;52.034;5.342;2023-05-02T07:32:04;102339.00;;;17.00
19282;BMP180;9774;52.034;5.342;2023-05-02T07:34:32;102344.00;;;17.00
19282;BMP180;9774;52.034;5.342;2023-05-02T07:36:59;102344.00;;;17.10
19282;BMP180;9774;52.034;5.342;2023-05-02T07:39:26;102344.00;;;17.10
19282;BMP180;9774;52.034;5.342;2023-05-02T07:41:55;102349.00;;;17.10
19282;BMP180;9774;52.034;5.342;2023-05-02T07:44:22;102350.00;;;17.20
19282;BMP180;9774;52.034;5.342;2023-05-02T07:46:51;102357.00;;;17.20
19282;BMP180;9774;52.034;5.342;2023-05-02T07:49:18;102359.00;;;17.20
19282;BMP180;9774;52.034;5.342;2023-05-02T07:51:46;102361.00;;;17.20
19282;BMP180;9774;52.034;5.342;2023-05-02T07:54:16;102363.00;;;17.20
19282;BMP180;9774;52.034;5.342;2023-05-02T07:56:43;102370.00;;;17.20
19282;BMP180;9774;52.034;5.342;2023-05-02T07:59:12;102368.00;;;17.10
19282;BMP180;9774;52.034;5.342;2023-05-02T08:01:40;102385.00;;;17.10
19282;BMP180;9774;52.034;5.342;2023-05-02T08:04:07;102384.00;;;17.10
19282;BMP180;9774;52.034;5.342;2023-05-02T08:06:36;102395.00;;;17.20
19282;BMP180;9774;52.034;5.342;2023-05-02T08:09:03;102399.00;;;17.20
19282;BMP180;9774;52.034;5.342;2023-05-02T08:11:31;102395.00;;;17.20
19282;BMP180;9774;52.034;5.342;2023-05-02T08:13:58;102395.00;;;17.20
19282;BMP180;9774;52.034;5.342;2023-05-02T08:16:27;102389.00;;;17.10
19282;BMP180;9774;52.034;5.342;2023-05-02T08:18:54;102393.00;;;17.10
19282;BMP180;9774;52.034;5.342;2023-05-02T08:21:21;102400.00;;;17.10
19282;BMP180;9774;52.034;5.342;2023-05-02T08:23:49;102399.00;;;17.10
19282;BMP180;9774;52.034;5.342;2023-05-02T08:26:16;102406.00;;;17.20
19282;BMP180;9774;52.034;5.342;2023-05-02T08:28:44;102408.00;;;17.20
19282;BMP180;9774;52.034;5.342;2023-05-02T08:31:11;102406.00;;;17.20
19282;BMP180;9774;52.034;5.342;2023-05-02T08:33:40;102404.00;;;17.20
19282;BMP180;9774;52.034;5.342;2023-05-02T08:36:11;102417.00;;;17.20
19282;BMP180;9774;52.034;5.342;2023-05-02T08:38:38;102427.00;;;17.20
19282;BMP180;9774;52.034;5.342;2023-05-02T08:41:09;102435.00;;;17.20
19282;BMP180;9774;52.034;5.342;2023-05-02T08:43:38;102431.00;;;17.20
19282;BMP180;9774;52.034;5.342;2023-05-02T08:46:07;102430.00;;;17.20
19282;BMP180;9774;52.034;5.342;2023-05-02T08:48:35;102439.00;;;17.30
19282;BMP180;9774;52.034;5.342;2023-05-02T08:51:08;102437.00;;;17.20
19282;BMP180;9774;52.034;5.342;2023-05-02T08:53:37;102440.00;;;17.30
19282;BMP180;9774;52.034;5.342;2023-05-02T08:56:06;102444.00;;;17.30
19282;BMP180;9774;52.034;5.342;2023-05-02T08:58:34;102442.00;;;17.30
19282;BMP180;9774;52.034;5.342;2023-05-02T09:01:07;102451.00;;;17.40
19282;BMP180;9774;52.034;5.342;2023-05-02T09:03:36;102455.00;;;17.40
19282;BMP180;9774;52.034;5.342;2023-05-02T09:06:06;102459.00;;;17.50
19282;BMP180;9774;52.034;5.342;2023-05-02T09:08:34;102457.00;;;17.50
19282;BMP180;9774;52.034;5.342;2023-05-02T09:11:02;102468.00;;;17.50
19282;BMP180;9774;52.034;5.342;2023-05-02T09:13:31;102467.00;;;17.60
19282;BMP180;9774;52.034;5.342;2023-05-02T09:16:00;102459.00;;;17.60
19282;BMP180;9774;52.034;5.342;2023-05-02T09:18:31;102467.00;;;17.70
19282;BMP180;9774;52.034;5.342;2023-05-02T09:20:59;102469.00;;;17.80
19282;BMP180;9774;52.034;5.342;2023-05-02T09:23:39;102462.00;;;17.80
19282;BMP180;9774;52.034;5.342;2023-05-02T09:26:11;102458.00;;;17.90
19282;BMP180;9774;52.034;5.342;2023-05-02T09:28:41;102455.00;;;18.00
19282;BMP180;9774;52.034;5.342;2023-05-02T09:31:09;102457.00;;;18.10
19282;BMP180;9774;52.034;5.342;2023-05-02T09:33:37;102461.00;;;18.20
19282;BMP180;9774;52.034;5.342;2023-05-02T09:36:05;102476.00;;;18.30
19282;BMP180;9774;52.034;5.342;2023-05-02T09:38:33;102475.00;;;18.40
19282;BMP180;9774;52.034;5.342;2023-05-02T09:41:02;102476.00;;;18.50
19282;BMP180;9774;52.034;5.342;2023-05-02T09:43:30;102493.00;;;18.50
19282;BMP180;9774;52.034;5.342;2023-05-02T09:45:59;102494.00;;;18.60
19282;BMP180;9774;52.034;5.342;2023-05-02T09:48:27;102493.00;;;18.60
19282;BMP180;9774;52.034;5.342;2023-05-02T09:50:55;102492.00;;;18.70
19282;BMP180;9774;52.034;5.342;2023-05-02T09:53:25;102486.00;;;18.70
19282;BMP180;9774;52.034;5.342;2023-05-02T09:56:01;102491.00;;;18.70
19282;BMP180;9774;52.034;5.342;2023-05-02T09:58:29;102484.00;;;18.90
19282;BMP180;9774;52.034;5.342;2023-05-02T10:00:57;102484.00;;;19.00
19282;BMP180;9774;52.034;5.342;2023-05-02T10:03:26;102479.00;;;19.00
19282;BMP180;9774;52.034;5.342;2023-05-02T10:05:55;102486.00;;;19.10
19282;BMP180;9774;52.034;5.342;2023-05-02T10:08:24;102487.00;;;19.10
19282;BMP180;9774;52.034;5.342;2023-05-02T10:10:54;102490.00;;;19.20
19282;BMP180;9774;52.034;5.342;2023-05-02T10:13:25;102485.00;;;19.20
19282;BMP180;9774;52.034;5.342;2023-05-02T10:16:00;102495.00;;;19.30
19282;BMP180;9774;52.034;5.342;2023-05-02T10:18:30;102503.00;;;19.30
19282;BMP180;9774;52.034;5.342;2023-05-02T10:21:04;102500.00;;;19.40
19282;BMP180;9774;52.034;5.342;2023-05-02T10:23:33;102506.00;;;19.60
19282;BMP180;9774;52.034;5.342;2023-05-02T10:26:01;102506.00;;;19.70
19282;BMP180;9774;52.034;5.342;2023-05-02T10:28:30;102506.00;;;19.70
19282;BMP180;9774;52.034;5.342;2023-05-02T10:30:58;102508.00;;;19.80
19282;BMP180;9774;52.034;5.342;2023-05-02T10:33:26;102506.00;;;19.80
19282;BMP180;9774;52.034;5.342;2023-05-02T10:35:55;102513.00;;;20.00
19282;BMP180;9774;52.034;5.342;2023-05-02T10:38:23;102519.00;;;20.00
19282;BMP180;9774;52.034;5.342;2023-05-02T10:40:53;102525.00;;;20.10
19282;BMP180;9774;52.034;5.342;2023-05-02T10:43:24;102515.00;;;20.20
19282;BMP180;9774;52.034;5.342;2023-05-02T10:45:53;102502.00;;;20.20
19282;BMP180;9774;52.034;5.342;2023-05-02T10:48:22;102506.00;;;20.30
19282;BMP180;9774;52.034;5.342;2023-05-02T10:50:53;102505.00;;;20.40
19282;BMP180;9774;52.034;5.342;2023-05-02T10:53:28;102518.00;;;20.40
19282;BMP180;9774;52.034;5.342;2023-05-02T10:56:16;102520.00;;;20.40
19282;BMP180;9774;52.034;5.342;2023-05-02T10:58:44;102520.00;;;20.60
19282;BMP180;9774;52.034;5.342;2023-05-02T11:01:35;102527.00;;;20.50
19282;BMP180;9774;52.034;5.342;2023-05-02T11:04:06;102528.00;;;20.70
19282;BMP180;9774;52.034;5.342;2023-05-02T11:06:34;102531.00;;;20.80
19282;BMP180;9774;52.034;5.342;2023-05-02T11:09:30;102533.00;;;20.80
19282;BMP180;9774;52.034;5.342;2023-05-02T11:11:59;102516.00;;;21.00
19282;BMP180;9774;52.034;5.342;2023-05-02T11:14:46;102520.00;;;20.90
19282;BMP180;9774;52.034;5.342;2023-05-02T11:17:16;102528.00;;;21.10
19282;BMP180;9774;52.034;5.342;2023-05-02T11:22:51;102530.00;;;21.00
19282;BMP180;9774;52.034;5.342;2023-05-02T11:25:29;102539.00;;;21.00
19282;BMP180;9774;52.034;5.342;2023-05-02T11:27:57;102526.00;;;21.10
19282;BMP180;9774;52.034;5.342;2023-05-02T11:30:42;102529.00;;;21.10
19282;BMP180;9774;52.034;5.342;2023-05-02T11:33:17;102542.00;;;21.20
19282;BMP180;9774;52.034;5.342;2023-05-02T11:35:48;102548.00;;;21.20
19282;BMP180;9774;52.034;5.342;2023-05-02T11:38:18;102533.00;;;21.20
19282;BMP180;9774;52.034;5.342;2023-05-02T11:40:55;102525.00;;;21.10
19282;BMP180;9774;52.034;5.342;2023-05-02T11:43:24;102534.00;;;21.20
19282;BMP180;9774;52.034;5.342;2023-05-02T11:45:52;102536.00;;;21.20
19282;BMP180;9774;52.034;5.342;2023-05-02T11:48:22;102534.00;;;21.20
19282;BMP180;9774;52.034;5.342;2023-05-02T11:50:54;102532.00;;;21.20
19282;BMP180;9774;52.034;5.342;2023-05-02T11:53:23;102540.00;;;21.20
19282;BMP180;9774;52.034;5.342;2023-05-02T11:55:52;102544.00;;;21.10
19282;BMP180;9774;52.034;5.342;2023-05-02T11:58:22;102546.00;;;21.10
19282;BMP180;9774;52.034;5.342;2023-05-02T12:00:50;102544.00;;;21.10
19282;BMP180;9774;52.034;5.342;2023-05-02T12:03:27;102546.00;;;21.10
19282;BMP180;9774;52.034;5.342;2023-05-02T12:05:55;102545.00;;;21.10
19282;BMP180;9774;52.034;5.342;2023-05-02T12:08:24;102545.00;;;21.20
19282;BMP180;9774;52.034;5.342;2023-05-02T12:10:53;102541.00;;;21.20
19282;BMP180;9774;52.034;5.342;2023-05-02T12:13:22;102554.00;;;21.30
19282;BMP180;9774;52.034;5.342;2023-05-02T12:15:51;102569.00;;;21.30
19282;BMP180;9774;52.034;5.342;2023-05-02T12:18:20;102566.00;;;21.30
19282;BMP180;9774;52.034;5.342;2023-05-02T12:20:50;102565.00;;;21.30
19282;BMP180;9774;52.034;5.342;2023-05-02T12:23:19;102567.00;;;21.30
19282;BMP180;9774;52.034;5.342;2023-05-02T12:25:47;102568.00;;;21.30
19282;BMP180;9774;52.034;5.342;2023-05-02T12:28:16;102566.00;;;21.30
19282;BMP180;9774;52.034;5.342;2023-05-02T12:30:46;102575.00;;;21.30
19282;BMP180;9774;52.034;5.342;2023-05-02T12:33:13;102582.00;;;21.40
19282;BMP180;9774;52.034;5.342;2023-05-02T12:35:41;102584.00;;;21.40
19282;BMP180;9774;52.034;5.342;2023-05-02T12:38:13;102587.00;;;21.40
19282;BMP180;9774;52.034;5.342;2023-05-02T12:40:48;102595.00;;;21.30
19282;BMP180;9774;52.034;5.342;2023-05-02T12:43:17;102584.00;;;21.30
19282;BMP180;9774;52.034;5.342;2023-05-02T12:45:44;102581.00;;;21.30
19282;BMP180;9774;52.034;5.342;2023-05-02T12:48:21;102593.00;;;21.20
19282;BMP180;9774;52.034;5.342;2023-05-02T12:50:49;102605.00;;;21.40
19282;BMP180;9774;52.034;5.342;2023-05-02T12:56:03;102588.00;;;21.40
19282;BMP180;9774;52.034;5.342;2023-05-02T12:58:37;102598.00;;;21.50
19282;BMP180;9774;52.034;5.342;2023-05-02T13:01:07;102602.00;;;21.50
19282;BMP180;9774;52.034;5.342;2023-05-02T13:03:34;102608.00;;;21.50
19282;BMP180;9774;52.034;5.342;2023-05-02T13:06:02;102601.00;;;21.60
19282;BMP180;9774;52.034;5.342;2023-05-02T13:08:34;102600.00;;;21.50
19282;BMP180;9774;52.034;5.342;2023-05-02T13:11:01;102606.00;;;21.60
19282;BMP180;9774;52.034;5.342;2023-05-02T13:13:29;102611.00;;;21.60
19282;BMP180;9774;52.034;5.342;2023-05-02T13:15:57;102598.00;;;21.60
19282;BMP180;9774;52.034;5.342;2023-05-02T13:18:24;102613.00;;;21.60
19282;BMP180;9774;52.034;5.342;2023-05-02T13:20:53;102604.00;;;21.50
19282;BMP180;9774;52.034;5.342;2023-05-02T13:23:20;102609.00;;;21.50
19282;BMP180;9774;52.034;5.342;2023-05-02T13:25:49;102622.00;;;21.60
19282;BMP180;9774;52.034;5.342;2023-05-02T13:28:16;102619.00;;;21.70
19282;BMP180;9774;52.034;5.342;2023-05-02T13:30:44;102612.00;;;21.80
19282;BMP180;9774;52.034;5.342;2023-05-02T13:33:11;102619.00;;;21.90
19282;BMP180;9774;52.034;5.342;2023-05-02T13:35:38;102607.00;;;22.00
19282;BMP180;9774;52.034;5.342;2023-05-02T13:38:06;102612.00;;;22.20
19282;BMP180;9774;52.034;5.342;2023-05-02T13:40:33;102619.00;;;22.50
19282;BMP180;9774;52.034;5.342;2023-05-02T13:43:01;102603.00;;;23.00
19282;BMP180;9774;52.034;5.342;2023-05-02T13:45:29;102615.00;;;23.60
19282;BMP180;9774;52.034;5.342;2023-05-02T13:47:56;102616.00;;;24.00
19282;BMP180;9774;52.034;5.342;2023-05-02T13:50:23;102626.00;;;24.50
19282;BMP180;9774;52.034;5.342;2023-05-02T13:52:50;102631.00;;;25.10
19282;BMP180;9774;52.034;5.342;2023-05-02T13:55:18;102631.00;;;25.60
19282;BMP180;9774;52.034;5.342;2023-05-02T13:57:45;102622.00;;;26.10
19282;BMP180;9774;52.034;5.342;2023-05-02T14:00:14;102631.00;;;26.40
19282;BMP180;9774;52.034;5.342;2023-05-02T14:02:42;102643.00;;;26.70
19282;BMP180;9774;52.034;5.342;2023-05-02T14:05:11;102634.00;;;26.80
19282;BMP180;9774;52.034;5.342;2023-05-02T14:07:39;102634.00;;;26.70
19282;BMP180;9774;52.034;5.342;2023-05-02T14:10:07;102622.00;;;26.70
19282;BMP180;9774;52.034;5.342;2023-05-02T14:12:34;102632.00;;;26.60
19282;BMP180;9774;52.034;5.342;2023-05-02T14:15:02;102643.00;;;26.50
19282;BMP180;9774;52.034;5.342;2023-05-02T14:17:31;102644.00;;;26.50
19282;BMP180;9774;52.034;5.342;2023-05-02T14:19:58;102639.00;;;26.70
19282;BMP180;9774;52.034;5.342;2023-05-02T14:22:25;102630.00;;;27.10
19282;BMP180;9774;52.034;5.342;2023-05-02T14:24:53;102633.00;;;27.50
19282;BMP180;9774;52.034;5.342;2023-05-02T14:27:20;102632.00;;;27.40